^^
Station Historical Data
Daily Summary for March 15, 2017 Units:  English    Metric   Both
« Previous Day
Next Day »
Daily Weekly Monthly Yearly Custom
  High: Low: Average:
Temperature: 25.2 °F 17.7 °F 21.7 °F
Dew Point: 15.2 °F 9.0 °F 11.5 °F
Humidity: 78% 52% 65%
Wind Speed: 9.0mph 0.0mph 3.9mph
Wind Gust: 24.0mph - -
Wind- - SW
Pressure: 29.87 in 29.52 in -
Precipitation: 0.00 in    
Historical Graphs
 
 
Tabular Data for March 15, 2017
Time Temperature Dew Point Pressure Wind Wind Speed Wind Gust Humidity Rainfall Rate (Hourly) Conditions
00:00 18.5 °F 12.8 °F 29.52 in SW 2.0 mph 9.0 mph 78% 0.00 in SCT
00:15 18.0 °F 12.0 °F 29.52 in WSW 1.0 mph 13.0 mph 77% 0.00 in FEW
00:30 17.8 °F 11.8 °F 29.53 in WSW 2.0 mph 12.0 mph 77% 0.00 in FEW
00:45 17.7 °F 11.7 °F 29.53 in NW 2.0 mph 18.0 mph 77% 0.00 in FEW
01:00 17.8 °F 11.5 °F 29.53 in WSW 2.0 mph 12.0 mph 76% 0.00 in FEW
02:15 17.9 °F 10.4 °F 29.55 in SSE 5.0 mph 20.0 mph 72% 0.00 in FEW
02:30 17.9 °F 10.1 °F 29.55 in SW 2.0 mph 13.0 mph 71% 0.00 in FEW
02:45 17.8 °F 9.7 °F 29.56 in South 2.0 mph 12.0 mph 70% 0.00 in FEW
03:00 17.7 °F 9.6 °F 29.55 in South 5.0 mph 15.0 mph 70% 0.00 in FEW
03:15 17.8 °F 9.3 °F 29.55 in SW 5.0 mph 16.0 mph 69% 0.00 in FEW
03:30 18.0 °F 9.2 °F 29.55 in WSW 6.0 mph 20.0 mph 68% 0.00 in FEW
03:44 18.0 °F 9.2 °F 29.56 in WSW 2.0 mph 21.0 mph 68% 0.00 in
04:14 17.9 °F 9.1 °F 29.56 in SW 5.0 mph 12.0 mph 68% 0.00 in
04:44 18.1 °F 9.3 °F 29.58 in SW 3.0 mph 13.0 mph 68% 0.00 in
05:14 18.4 °F 9.6 °F 29.58 in WSW 5.0 mph 13.0 mph 68% 0.00 in
05:44 18.4 °F 9.3 °F 29.59 in SW 3.0 mph 17.0 mph 67% 0.00 in
06:14 18.2 °F 9.1 °F 29.59 in WSW 1.0 mph 16.0 mph 67% 0.00 in
06:44 18.1 °F 9.0 °F 29.59 in SW 3.0 mph 14.0 mph 67% 0.00 in
07:14 18.2 °F 9.4 °F 29.60 in WSW 3.0 mph 17.0 mph 68% 0.00 in
07:44 18.1 °F 10.3 °F 29.61 in WSW 6.0 mph 15.0 mph 71% 0.00 in
08:00 18.3 °F 10.8 °F 29.61 in WSW 7.0 mph 12.0 mph 72% 0.00 in FEW
08:15 18.6 °F 10.8 °F 29.61 in SW 5.0 mph 13.0 mph 71% 0.00 in FEW
08:30 19.2 °F 10.7 °F 29.61 in WSW 5.0 mph 14.0 mph 69% 0.00 in FEW
08:45 19.9 °F 10.7 °F 29.61 in WSW 6.0 mph 18.0 mph 67% 0.00 in FEW
09:00 20.2 °F 10.3 °F 29.61 in SW 9.0 mph 18.0 mph 65% 0.00 in FEW
09:15 20.6 °F 10.3 °F 29.61 in West 7.0 mph 17.0 mph 64% 0.00 in BKN
09:30 21.1 °F 10.8 °F 29.61 in West 2.0 mph 14.0 mph 64% 0.00 in BKN
09:45 21.1 °F 10.5 °F 29.61 in WSW 3.0 mph 20.0 mph 63% 0.00 in BKN
10:00 21.7 °F 10.7 °F 29.61 in SW 6.0 mph 17.0 mph 62% 0.00 in BKN
10:15 21.6 °F 10.6 °F 29.61 in SW 9.0 mph 23.0 mph 62% 0.00 in BKN
10:45 21.7 °F 10.7 °F 29.61 in SW 3.0 mph 15.0 mph 62% 0.00 in BKN
11:00 21.9 °F 11.2 °F 29.60 in WSW 3.0 mph 17.0 mph 63% 0.00 in BKN
11:15 21.7 °F 12.1 °F 29.60 in WSW 8.0 mph 17.0 mph 66% 0.00 in -SN
11:30 22.1 °F 13.8 °F 29.60 in SW 3.0 mph 20.0 mph 70% 0.00 in -SN
11:45 22.1 °F 14.1 °F 29.60 in WSW 3.0 mph 15.0 mph 71% 0.00 in -SN
12:15 22.9 °F 12.2 °F 29.59 in WSW 5.0 mph 17.0 mph 63% 0.00 in BKN
12:30 23.9 °F 11.6 °F 29.59 in WSW 7.0 mph 17.0 mph 59% 0.00 in BKN
12:45 23.7 °F 12.2 °F 29.60 in WSW 3.0 mph 15.0 mph 61% 0.00 in BKN
13:00 23.9 °F 10.1 °F 29.59 in SW 7.0 mph 16.0 mph 55% 0.00 in BKN
13:15 24.9 °F 9.7 °F 29.59 in WSW 3.0 mph 20.0 mph 52% 0.00 in BKN
13:30 24.8 °F 9.7 °F 29.59 in WSW 9.0 mph 16.0 mph 52% 0.00 in BKN
13:45 24.7 °F 10.0 °F 29.58 in West 3.0 mph 18.0 mph 53% 0.00 in BKN
14:00 25.2 °F 10.4 °F 29.58 in SSW 3.0 mph 16.0 mph 53% 0.00 in BKN
14:15 24.7 °F 11.6 °F 29.58 in SSW 6.0 mph 17.0 mph 57% 0.00 in BKN
14:30 24.1 °F 11.4 °F 29.58 in WSW 5.0 mph 14.0 mph 58% 0.00 in BKN
14:45 24.2 °F 11.1 °F 29.59 in SW 5.0 mph 16.0 mph 57% 0.00 in BKN
15:00 23.3 °F 13.2 °F 29.60 in WSW 3.0 mph 20.0 mph 65% 0.00 in BKN
15:15 24.0 °F 14.3 °F 29.60 in SW 5.0 mph 14.0 mph 66% 0.00 in BKN
15:30 23.3 °F 13.6 °F 29.61 in WSW 3.0 mph 20.0 mph 66% 0.00 in BKN
15:45 23.2 °F 13.5 °F 29.61 in West 5.0 mph 15.0 mph 66% 0.00 in BKN
16:00 23.8 °F 14.1 °F 29.62 in SSW 5.0 mph 12.0 mph 66% 0.00 in BKN
16:15 23.8 °F 13.4 °F 29.62 in SW 2.0 mph 15.0 mph 64% 0.00 in BKN
16:30 23.9 °F 13.8 °F 29.63 in SSW 2.0 mph 20.0 mph 65% 0.00 in BKN
16:45 23.7 °F 14.3 °F 29.64 in West 3.0 mph 13.0 mph 67% 0.00 in BKN
17:00 23.2 °F 15.2 °F 29.65 in South 2.0 mph 14.0 mph 71% 0.00 in BKN
17:15 23.0 °F 14.6 °F 29.66 in SW 9.0 mph 15.0 mph 70% 0.00 in -SN
17:30 22.6 °F 14.3 °F 29.66 in West 5.0 mph 13.0 mph 70% 0.00 in -SN
17:45 23.0 °F 14.0 °F 29.66 in Calm   13.0 mph 68% 0.00 in -SN
18:00 23.6 °F 12.8 °F 29.67 in SW 3.0 mph 12.0 mph 63% 0.00 in -SN
18:15 23.8 °F 11.5 °F 29.68 in WNW 2.0 mph 15.0 mph 59% 0.00 in BKN
18:30 23.6 °F 12.1 °F 29.69 in SSW 3.0 mph 14.0 mph 61% 0.00 in BKN
18:45 23.2 °F 12.1 °F 29.70 in SSW 2.0 mph 17.0 mph 62% 0.00 in BKN
19:00 23.3 °F 11.4 °F 29.72 in WSW 5.0 mph 17.0 mph 60% 0.00 in BKN
19:15 23.4 °F 10.8 °F 29.72 in SSE 2.0 mph 10.0 mph 58% 0.00 in BKN
19:30 23.4 °F 10.4 °F 29.74 in WNW 3.0 mph 14.0 mph 57% 0.00 in BKN
19:45 23.5 °F 10.1 °F 29.75 in SSW 3.0 mph 16.0 mph 56% 0.00 in BKN
20:00 23.4 °F 10.4 °F 29.75 in NW 2.0 mph 16.0 mph 57% 0.00 in BKN
20:15 23.3 °F 11.4 °F 29.77 in SE 1.0 mph 12.0 mph 60% 0.00 in BKN
20:30 23.2 °F 11.4 °F 29.78 in West 2.0 mph 13.0 mph 60% 0.00 in BKN
20:45 23.2 °F 11.7 °F 29.79 in WSW 3.0 mph 18.0 mph 61% 0.00 in BKN
21:00 23.1 °F 11.6 °F 29.80 in West 3.0 mph 18.0 mph 61% 0.00 in BKN
21:15 23.3 °F 12.2 °F 29.80 in South 3.0 mph 16.0 mph 62% 0.00 in FEW
21:30 23.4 °F 12.3 °F 29.81 in SSW 9.0 mph 24.0 mph 62% 0.00 in FEW
21:45 23.5 °F 12.7 °F 29.82 in South 2.0 mph 18.0 mph 63% 0.00 in FEW
22:00 23.6 °F 13.2 °F 29.84 in West 5.0 mph 14.0 mph 64% 0.00 in FEW
22:15 23.7 °F 13.3 °F 29.84 in SE 3.0 mph 16.0 mph 64% 0.00 in SCT
22:45 23.8 °F 12.7 °F 29.85 in SW 6.0 mph 15.0 mph 62% 0.00 in SCT
23:00 24.0 °F 12.9 °F 29.85 in SW 3.0 mph 18.0 mph 62% 0.00 in SCT
23:15 24.1 °F 12.9 °F 29.86 in SE 2.0 mph 12.0 mph 62% 0.00 in SCT
23:30 24.0 °F 12.5 °F 29.86 in West 2.0 mph 14.0 mph 61% 0.00 in SCT
23:45 24.1 °F 12.2 °F 29.87 in WSW 5.0 mph 14.0 mph 60% 0.00 in SCT
TarryTown NY Weather
Compliments of Weather Underground - 1.5 mb